createdAt,value
2023-02-04T00:01:15.228Z,9.32
2023-02-04T00:02:35.730Z,10.02
2023-02-04T00:03:56.410Z,10.40
2023-02-04T00:05:18.474Z,8.82
2023-02-04T00:07:59.505Z,11.25
2023-02-04T00:09:20.167Z,11.55
2023-02-04T00:10:40.984Z,9.85
2023-02-04T00:12:03.339Z,12.57
2023-02-04T00:13:23.742Z,12.55
2023-02-04T00:14:44.423Z,11.05
2023-02-04T00:16:06.024Z,10.27
2023-02-04T00:17:26.616Z,11.68
2023-02-04T00:18:47.373Z,10.40
2023-02-04T00:20:08.866Z,10.40
2023-02-04T00:21:29.437Z,10.13
2023-02-04T00:22:50.035Z,11.50
2023-02-04T00:24:10.748Z,11.23
2023-02-04T00:25:31.559Z,10.05
2023-02-04T00:26:52.437Z,9.43
2023-02-04T00:28:14.681Z,11.55
2023-02-04T00:29:35.473Z,9.02
2023-02-04T00:30:55.913Z,10.00
2023-02-04T00:32:16.862Z,10.95
2023-02-04T00:33:37.458Z,9.48
2023-02-04T00:34:58.242Z,11.55
2023-02-04T00:36:18.852Z,10.18
2023-02-04T00:37:39.435Z,10.10
2023-02-04T00:39:00.340Z,11.52
2023-02-04T00:40:21.503Z,10.23
2023-02-04T00:41:42.225Z,10.27
2023-02-04T00:43:03.079Z,10.48
2023-02-04T00:44:25.275Z,10.50
2023-02-04T00:45:45.907Z,9.38
2023-02-04T00:47:06.652Z,10.30
2023-02-04T00:48:27.066Z,9.15
2023-02-04T00:49:47.775Z,8.68
2023-02-04T00:51:08.379Z,10.93
2023-02-04T00:52:29.166Z,9.93
2023-02-04T00:53:49.881Z,8.73
2023-02-04T00:55:10.484Z,9.27
2023-02-04T00:56:31.395Z,9.02
2023-02-04T00:57:51.999Z,8.50
2023-02-04T00:59:12.765Z,9.07
2023-02-04T01:00:34.807Z,9.73
2023-02-04T01:01:55.405Z,9.02
2023-02-04T01:03:16.215Z,8.30
2023-02-04T01:04:37.102Z,8.63
2023-02-04T01:05:57.489Z,8.75
2023-02-04T01:07:18.148Z,7.73
2023-02-04T01:08:38.988Z,9.05
2023-02-04T01:09:59.644Z,8.50
2023-02-04T01:11:20.436Z,8.77
2023-02-04T01:12:41.569Z,8.50
2023-02-04T01:14:02.485Z,9.75
2023-02-04T01:15:23.162Z,6.80
2023-02-04T01:16:45.160Z,9.37
2023-02-04T01:18:06.107Z,9.45
2023-02-04T01:19:26.568Z,9.30
2023-02-04T01:20:47.204Z,9.30
2023-02-04T01:22:08.004Z,8.70
2023-02-04T01:23:28.603Z,7.83
2023-02-04T01:24:49.215Z,8.93
2023-02-04T01:26:09.558Z,9.00
2023-02-04T01:27:30.337Z,8.82
2023-02-04T01:28:51.518Z,8.82
2023-02-04T01:30:13.552Z,8.88
2023-02-04T01:31:34.005Z,9.77
2023-02-04T01:32:55.927Z,8.75
2023-02-04T01:34:16.251Z,8.68
2023-02-04T01:35:36.674Z,9.00
2023-02-04T01:36:57.296Z,8.00
2023-02-04T01:38:18.018Z,8.98
2023-02-04T01:39:38.782Z,8.90
2023-02-04T01:40:59.498Z,8.32
2023-02-04T01:42:20.461Z,8.25
2023-02-04T01:43:41.060Z,7.90
2023-02-04T01:45:01.858Z,9.23
2023-02-04T01:46:22.525Z,7.50
2023-02-04T01:47:43.376Z,8.60
2023-02-04T01:49:05.783Z,7.55
2023-02-04T01:50:26.880Z,7.07
2023-02-04T01:51:47.384Z,7.43
2023-02-04T01:53:08.058Z,7.30
2023-02-04T01:54:28.827Z,7.05
2023-02-04T01:55:50.492Z,8.00
2023-02-04T01:57:15.081Z,7.43
2023-02-04T01:58:35.772Z,8.63
2023-02-04T01:59:57.836Z,7.90
2023-02-04T02:01:35.139Z,6.85
2023-02-04T02:02:55.819Z,7.93
2023-02-04T02:04:20.343Z,7.15
2023-02-04T02:05:44.384Z,7.32
2023-02-04T02:07:06.944Z,7.25
2023-02-04T02:08:27.342Z,6.47
2023-02-04T02:09:47.632Z,7.38
2023-02-04T02:11:07.993Z,7.40
2023-02-04T02:12:30.079Z,7.33
2023-02-04T02:13:51.072Z,6.63
2023-02-04T02:15:12.746Z,7.13
2023-02-04T02:17:54.286Z,6.55
2023-02-04T02:19:19.186Z,6.63
2023-02-04T02:20:40.111Z,6.38
2023-02-04T02:22:04.030Z,5.78
2023-02-04T02:23:27.335Z,7.30
2023-02-04T02:24:49.478Z,6.00
2023-02-04T02:26:10.322Z,6.20
2023-02-04T02:27:31.282Z,6.15
2023-02-04T02:28:52.270Z,6.30
2023-02-04T02:30:14.789Z,6.97
2023-02-04T02:31:35.664Z,7.47
2023-02-04T02:32:56.937Z,5.93
2023-02-04T02:34:17.871Z,5.97
2023-02-04T02:35:38.322Z,7.03
2023-02-04T02:36:59.606Z,5.93
2023-02-04T02:38:20.421Z,6.13
2023-02-04T02:39:42.552Z,5.68
2023-02-04T02:41:05.001Z,5.45
2023-02-04T02:42:26.062Z,5.78
2023-02-04T02:43:51.538Z,5.80
2023-02-04T02:45:18.488Z,6.63
2023-02-04T02:46:39.492Z,6.18
2023-02-04T02:48:01.911Z,6.68
2023-02-04T02:49:22.769Z,6.07
2023-02-04T02:50:43.504Z,6.03
2023-02-04T02:52:04.603Z,5.90
2023-02-04T02:54:45.897Z,6.40
2023-02-04T02:56:09.552Z,6.68
2023-02-04T02:57:29.943Z,6.20
2023-02-04T02:58:50.734Z,6.90
2023-02-04T03:00:15.673Z,6.18
2023-02-04T03:01:36.156Z,5.00
2023-02-04T03:02:58.838Z,6.68
2023-02-04T03:04:20.519Z,5.93
2023-02-04T03:05:43.086Z,6.70
2023-02-04T03:07:04.125Z,6.55
2023-02-04T03:08:24.538Z,5.80
2023-02-04T03:09:45.229Z,5.25
2023-02-04T03:11:06.109Z,5.93
2023-02-04T03:12:28.180Z,5.78
2023-02-04T03:13:48.680Z,6.55
2023-02-04T03:15:09.706Z,7.40
2023-02-04T03:16:30.821Z,6.43
2023-02-04T03:17:51.213Z,7.20
2023-02-04T03:19:12.838Z,6.22
2023-02-04T03:20:34.337Z,6.20
2023-02-04T03:21:55.474Z,7.07
2023-02-04T03:23:16.052Z,5.57
2023-02-04T03:24:38.623Z,6.17
2023-02-04T03:25:59.244Z,5.68
2023-02-04T03:27:19.959Z,6.38
2023-02-04T03:28:42.513Z,7.00
2023-02-04T03:30:03.139Z,5.75
2023-02-04T03:31:24.112Z,5.55
2023-02-04T03:32:44.539Z,5.75
2023-02-04T03:34:05.249Z,5.97
2023-02-04T03:35:25.644Z,6.80
2023-02-04T03:36:46.023Z,6.50
2023-02-04T03:38:06.530Z,5.88
2023-02-04T03:39:27.087Z,5.93
2023-02-04T03:40:47.824Z,5.38
2023-02-04T03:42:08.984Z,6.00
2023-02-04T03:43:29.639Z,5.45
2023-02-04T03:44:51.551Z,5.93
2023-02-04T03:46:12.181Z,6.65
2023-02-04T03:47:32.906Z,6.07
2023-02-04T03:48:53.300Z,7.28
2023-02-04T03:50:14.202Z,5.63
2023-02-04T03:51:34.771Z,5.45
2023-02-04T03:52:55.488Z,5.65
2023-02-04T03:54:15.924Z,6.97
2023-02-04T03:55:36.578Z,6.85
2023-02-04T03:56:57.393Z,5.75
2023-02-04T03:58:17.995Z,5.70
2023-02-04T03:59:38.858Z,5.07
2023-02-04T04:01:00.632Z,5.38
2023-02-04T04:02:21.284Z,5.15
2023-02-04T04:03:42.040Z,5.13
2023-02-04T04:05:02.821Z,4.85
2023-02-04T04:06:23.088Z,5.32
2023-02-04T04:07:43.639Z,5.07
2023-02-04T04:09:04.480Z,4.85
2023-02-04T04:10:25.078Z,5.32
2023-02-04T04:11:45.661Z,5.65
2023-02-04T04:13:06.298Z,5.90
2023-02-04T04:14:26.997Z,6.45
2023-02-04T04:15:47.731Z,4.90
2023-02-04T04:17:09.658Z,6.03
2023-02-04T04:18:30.106Z,6.45
2023-02-04T04:19:50.615Z,5.67
2023-02-04T04:21:11.161Z,6.13
2023-02-04T04:22:31.854Z,5.97
2023-02-04T04:23:52.556Z,6.60
2023-02-04T04:25:13.214Z,6.57
2023-02-04T04:26:33.859Z,6.75
2023-02-04T04:27:54.839Z,5.82
2023-02-04T04:29:15.488Z,4.97
2023-02-04T04:30:36.139Z,6.30
2023-02-04T04:31:56.963Z,5.75
2023-02-04T04:33:18.923Z,5.73
2023-02-04T04:34:39.610Z,5.88
2023-02-04T04:36:00.480Z,5.32
2023-02-04T04:37:21.367Z,5.78
2023-02-04T04:38:42.169Z,6.13
2023-02-04T04:40:02.633Z,4.85
2023-02-04T04:41:23.169Z,5.65
2023-02-04T04:42:43.786Z,5.38
2023-02-04T04:44:04.564Z,6.07
2023-02-04T04:45:25.064Z,6.68
2023-02-04T04:46:45.765Z,6.43
2023-02-04T04:48:06.480Z,6.75
2023-02-04T04:49:28.393Z,6.13
2023-02-04T04:50:49.336Z,5.57
2023-02-04T04:52:10.191Z,5.10
2023-02-04T04:53:30.939Z,6.28
2023-02-04T04:54:51.615Z,7.20
2023-02-04T04:56:12.320Z,5.67
2023-02-04T04:57:32.933Z,6.30
2023-02-04T04:58:53.674Z,6.57
2023-02-04T05:00:17.391Z,5.80
2023-02-04T05:01:38.192Z,6.05
2023-02-04T05:02:58.411Z,5.75
2023-02-04T05:04:19.063Z,6.07
2023-02-04T05:05:41.051Z,6.03
2023-02-04T05:07:01.624Z,7.25
2023-02-04T05:08:22.201Z,5.95
2023-02-04T05:09:42.890Z,5.63
2023-02-04T05:11:03.896Z,6.67
2023-02-04T05:12:24.234Z,6.30
2023-02-04T05:13:44.680Z,7.47
2023-02-04T05:15:06.859Z,5.35
2023-02-04T05:16:27.426Z,5.30
2023-02-04T05:17:48.127Z,6.35
2023-02-04T05:19:08.310Z,5.35
2023-02-04T05:20:30.587Z,6.47
2023-02-04T05:21:52.550Z,8.38
2023-02-04T05:23:12.973Z,6.07
2023-02-04T05:24:33.877Z,5.65
2023-02-04T05:25:54.653Z,6.78
2023-02-04T05:27:15.005Z,6.50
2023-02-04T05:28:35.913Z,5.72
2023-02-04T05:29:56.620Z,6.40
2023-02-04T05:31:17.484Z,6.28
2023-02-04T05:32:38.604Z,5.03
2023-02-04T05:33:59.338Z,6.30
2023-02-04T05:35:20.373Z,6.13
2023-02-04T05:36:41.117Z,5.50
2023-02-04T05:38:03.228Z,6.03
2023-02-04T05:39:23.683Z,6.55
2023-02-04T05:40:44.377Z,6.15
2023-02-04T05:42:05.094Z,6.20
2023-02-04T05:43:25.865Z,5.90
2023-02-04T05:44:46.472Z,5.72
2023-02-04T05:46:07.050Z,5.90
2023-02-04T05:47:27.766Z,6.15
2023-02-04T05:48:48.392Z,7.18
2023-02-04T05:50:09.775Z,6.25
2023-02-04T05:51:30.208Z,5.93
2023-02-04T05:52:50.782Z,5.38
2023-02-04T05:54:12.635Z,6.32
2023-02-04T05:55:33.380Z,5.68
2023-02-04T05:56:54.002Z,5.97
2023-02-04T05:58:14.638Z,5.30
2023-02-04T05:59:35.392Z,6.07
2023-02-04T06:00:56.420Z,7.23
2023-02-04T06:02:16.816Z,5.85
2023-02-04T06:03:37.539Z,5.63
2023-02-04T06:04:58.025Z,6.38
2023-02-04T06:06:18.692Z,6.70
2023-02-04T06:07:39.370Z,7.40
2023-02-04T06:09:00.061Z,6.28
2023-02-04T06:10:21.771Z,7.30
2023-02-04T06:11:42.517Z,7.60
2023-02-04T06:13:03.137Z,7.10
2023-02-04T06:14:23.714Z,7.10
2023-02-04T06:15:44.408Z,7.38
2023-02-04T06:17:05.132Z,8.45
2023-02-04T06:18:25.969Z,8.32
2023-02-04T06:19:49.009Z,7.05
2023-02-04T06:21:09.568Z,7.93
2023-02-04T06:22:30.319Z,8.95
2023-02-04T06:23:51.142Z,6.88
2023-02-04T06:25:12.124Z,6.18
2023-02-04T06:26:34.112Z,7.47
2023-02-04T06:27:55.008Z,8.20
2023-02-04T06:29:15.603Z,7.55
2023-02-04T06:30:36.510Z,7.68
2023-02-04T06:31:57.556Z,7.32
2023-02-04T06:33:18.377Z,7.70
2023-02-04T06:34:39.016Z,7.22
2023-02-04T06:35:59.827Z,8.23
2023-02-04T06:37:20.295Z,7.35
2023-02-04T06:38:41.037Z,7.43
2023-02-04T06:40:02.240Z,7.10
2023-02-04T06:41:22.975Z,8.20
2023-02-04T06:42:44.705Z,6.53
2023-02-04T06:44:05.551Z,6.82
2023-02-04T06:45:26.058Z,6.27
2023-02-04T06:46:46.584Z,7.47
2023-02-04T06:48:07.360Z,6.78
2023-02-04T06:49:28.086Z,6.23
2023-02-04T06:50:48.457Z,7.18
2023-02-04T06:52:09.525Z,7.77
2023-02-04T06:53:30.209Z,8.48
2023-02-04T06:54:51.098Z,7.38
2023-02-04T06:56:12.092Z,6.97
2023-02-04T06:57:32.383Z,7.33
2023-02-04T06:58:54.626Z,7.45
2023-02-04T07:00:15.748Z,7.45
2023-02-04T07:01:36.524Z,8.63
2023-02-04T07:02:57.349Z,7.45
2023-02-04T07:04:17.674Z,7.78
2023-02-04T07:05:38.408Z,8.07
2023-02-04T07:06:58.827Z,7.03
2023-02-04T07:08:19.604Z,7.18
2023-02-04T07:09:40.500Z,6.43
2023-02-04T07:11:01.097Z,6.43
2023-02-04T07:12:21.827Z,6.20
2023-02-04T07:13:42.548Z,6.50
2023-02-04T07:15:05.025Z,6.60
2023-02-04T07:16:25.697Z,7.07
2023-02-04T07:17:46.175Z,7.05
2023-02-04T07:19:07.238Z,6.00
2023-02-04T07:20:28.220Z,7.07
2023-02-04T07:21:48.720Z,6.47
2023-02-04T07:23:10.870Z,8.07
2023-02-04T07:24:31.336Z,7.55
2023-02-04T07:25:51.873Z,8.27
2023-02-04T07:27:12.693Z,8.10
2023-02-04T07:28:33.546Z,8.77
2023-02-04T07:29:54.025Z,7.78
2023-02-04T07:31:16.224Z,7.80
2023-02-04T07:32:36.622Z,7.20
2023-02-04T07:33:57.330Z,7.53
2023-02-04T07:35:18.023Z,8.57
2023-02-04T07:36:38.921Z,7.70
2023-02-04T07:37:59.696Z,8.45
2023-02-04T07:39:20.439Z,8.90
2023-02-04T07:40:41.364Z,9.05
2023-02-04T07:42:02.206Z,7.10
2023-02-04T07:43:22.589Z,8.32
2023-02-04T07:44:43.409Z,8.75
2023-02-04T07:46:04.408Z,8.13
2023-02-04T07:47:26.288Z,7.82
2023-02-04T07:48:47.490Z,8.02
2023-02-04T07:50:08.504Z,8.23
2023-02-04T07:51:29.180Z,8.45
2023-02-04T07:52:49.862Z,9.02
2023-02-04T07:54:10.756Z,8.73
2023-02-04T07:55:31.603Z,8.25
2023-02-04T07:56:52.324Z,7.35
2023-02-04T07:58:15.605Z,8.00
2023-02-04T07:59:36.209Z,9.32
2023-02-04T08:00:57.278Z,8.43
2023-02-04T08:02:17.870Z,8.32
2023-02-04T08:03:41.709Z,8.35
2023-02-04T08:05:02.733Z,7.85
2023-02-04T08:06:23.501Z,11.18
2023-02-04T08:07:45.211Z,9.45
2023-02-04T08:09:05.887Z,9.48
2023-02-04T08:10:26.538Z,9.40
2023-02-04T08:11:47.616Z,9.73
2023-02-04T08:13:08.052Z,10.32
2023-02-04T08:14:28.932Z,10.27
2023-02-04T08:15:49.782Z,8.05
2023-02-04T08:17:10.440Z,8.95
2023-02-04T08:18:31.113Z,9.97
2023-02-04T08:19:53.351Z,9.38
2023-02-04T08:21:13.954Z,9.23
2023-02-04T08:22:34.885Z,9.65
2023-02-04T08:23:55.778Z,8.85
2023-02-04T08:25:16.346Z,9.48
2023-02-04T08:26:37.073Z,10.27
2023-02-04T08:27:57.929Z,9.38
2023-02-04T08:29:18.599Z,9.35
2023-02-04T08:30:39.127Z,10.23
2023-02-04T08:32:00.058Z,11.23
2023-02-04T08:33:20.792Z,9.43
2023-02-04T08:34:41.531Z,12.53
2023-02-04T08:36:04.602Z,10.82
2023-02-04T08:37:26.116Z,10.23
2023-02-04T08:38:46.990Z,9.63
2023-02-04T08:40:08.999Z,11.82
2023-02-04T08:41:29.873Z,10.73
2023-02-04T08:42:50.470Z,10.38
2023-02-04T08:44:11.336Z,11.63
2023-02-04T08:45:32.299Z,13.27
2023-02-04T08:46:53.362Z,10.85
2023-02-04T08:48:13.846Z,11.30
2023-02-04T08:49:34.502Z,11.65
2023-02-04T08:50:55.137Z,10.82
2023-02-04T08:52:17.372Z,10.57
2023-02-04T08:53:37.661Z,9.85
2023-02-04T08:54:58.161Z,12.30
2023-02-04T08:56:18.690Z,10.80
2023-02-04T08:57:39.266Z,10.82
2023-02-04T08:59:00.245Z,10.98
2023-02-04T09:00:21.433Z,10.95
2023-02-04T09:01:42.317Z,12.10
2023-02-04T09:03:03.185Z,11.55
2023-02-04T09:04:24.013Z,10.68
2023-02-04T09:05:44.608Z,8.55
2023-02-04T09:07:05.330Z,9.73
2023-02-04T09:08:27.565Z,10.60
2023-02-04T09:09:48.219Z,10.05
2023-02-04T09:11:08.793Z,9.25
2023-02-04T09:12:29.305Z,9.47
2023-02-04T09:13:50.133Z,10.18
2023-02-04T09:15:11.526Z,10.38
2023-02-04T09:16:32.450Z,9.52
2023-02-04T09:17:53.440Z,11.10
2023-02-04T09:19:13.884Z,11.38
2023-02-04T09:20:34.700Z,11.18
2023-02-04T09:21:55.464Z,11.50
2023-02-04T09:23:16.256Z,12.77
2023-02-04T09:24:38.510Z,11.55
2023-02-04T09:25:59.305Z,12.13
2023-02-04T09:27:20.119Z,11.45
2023-02-04T09:28:40.812Z,10.95
2023-02-04T09:30:01.574Z,10.80
2023-02-04T09:31:22.475Z,12.15
2023-02-04T09:32:43.201Z,12.18
2023-02-04T09:34:03.742Z,10.07
2023-02-04T09:35:24.799Z,10.98
2023-02-04T09:36:45.311Z,11.73
2023-02-04T09:38:06.005Z,11.18
2023-02-04T09:39:27.019Z,9.43
2023-02-04T09:40:53.333Z,11.95
2023-02-04T09:42:14.853Z,12.45
2023-02-04T09:43:38.934Z,12.57
2023-02-04T09:44:59.731Z,11.90
2023-02-04T09:46:22.253Z,13.68
2023-02-04T09:47:43.390Z,11.60
2023-02-04T09:49:03.901Z,6.30
2023-02-04T09:50:26.575Z,4.97
2023-02-04T09:51:48.095Z,4.80
2023-02-04T09:53:13.664Z,5.85
2023-02-04T09:54:34.547Z,5.50
2023-02-04T09:55:56.319Z,5.43
2023-02-04T09:57:19.275Z,6.85
2023-02-04T09:58:40.360Z,8.73
2023-02-04T10:00:01.060Z,9.82
2023-02-04T10:01:22.168Z,8.95
2023-02-04T10:02:43.708Z,7.03
2023-02-04T10:04:04.831Z,7.70
2023-02-04T10:05:29.117Z,8.15
2023-02-04T10:06:50.138Z,8.43
2023-02-04T10:08:14.034Z,11.80
2023-02-04T10:09:34.711Z,10.60
2023-02-04T10:10:58.224Z,10.27
2023-02-04T10:12:19.032Z,10.55
2023-02-04T10:13:42.543Z,10.10
2023-02-04T10:15:03.192Z,9.63
2023-02-04T10:16:25.107Z,9.03
2023-02-04T10:17:46.202Z,9.85
2023-02-04T10:19:09.553Z,8.82
2023-02-04T10:20:30.719Z,8.50
2023-02-04T10:21:51.461Z,8.82
2023-02-04T10:23:12.812Z,8.60
2023-02-04T10:24:33.493Z,9.48
2023-02-04T10:25:54.205Z,9.65
2023-02-04T10:27:16.560Z,9.47
2023-02-04T10:28:37.943Z,8.85
2023-02-04T10:31:31.018Z,8.25
2023-02-04T10:32:51.638Z,8.20
2023-02-04T10:34:18.079Z,9.20
2023-02-04T10:35:45.527Z,8.15
2023-02-04T10:37:18.732Z,8.25
2023-02-04T10:38:39.205Z,8.32
2023-02-04T10:40:00.043Z,9.40
2023-02-04T10:41:20.804Z,9.52
2023-02-04T10:42:48.281Z,8.93
2023-02-04T10:44:11.648Z,9.45
2023-02-04T10:45:33.083Z,10.18
2023-02-04T10:46:59.381Z,8.88
2023-02-04T10:48:20.288Z,9.02
2023-02-04T10:49:41.679Z,10.02
2023-02-04T10:51:02.065Z,11.80
2023-02-04T10:52:24.796Z,10.93
2023-02-04T10:53:45.333Z,10.93
2023-02-04T10:55:08.372Z,9.50
2023-02-04T10:56:29.351Z,8.00
2023-02-04T10:57:52.551Z,8.82
2023-02-04T10:59:21.242Z,8.68
2023-02-04T11:00:41.780Z,8.93
2023-02-04T11:02:33.335Z,9.90
2023-02-04T11:03:54.077Z,8.80
2023-02-04T11:05:16.506Z,8.97
2023-02-04T11:06:37.290Z,8.80
2023-02-04T11:07:58.485Z,10.00
2023-02-04T11:09:19.491Z,8.25
2023-02-04T11:10:40.470Z,8.77
2023-02-04T11:12:00.956Z,8.63
2023-02-04T11:13:25.238Z,9.00
2023-02-04T11:14:55.140Z,8.80
2023-02-04T11:16:26.054Z,8.55
2023-02-04T11:17:46.500Z,8.30
2023-02-04T11:19:12.649Z,8.43
2023-02-04T11:20:34.558Z,8.48
2023-02-04T11:23:17.587Z,9.38
2023-02-04T11:24:38.295Z,9.30
2023-02-04T11:26:06.137Z,8.98
2023-02-04T11:27:38.891Z,9.50
2023-02-04T11:29:24.842Z,9.23
2023-02-04T11:30:45.329Z,9.15
2023-02-04T11:32:07.529Z,8.68
2023-02-04T11:33:38.882Z,9.15
2023-02-04T11:35:23.215Z,10.38
2023-02-04T11:37:11.010Z,9.20
2023-02-04T11:38:32.607Z,8.68
2023-02-04T11:41:18.285Z,10.13
2023-02-04T11:42:40.949Z,9.98
2023-02-04T11:44:01.462Z,10.73
2023-02-04T11:45:26.924Z,9.07
2023-02-04T11:46:50.620Z,9.40
2023-02-04T11:48:13.799Z,8.85
2023-02-04T11:49:36.572Z,8.88
2023-02-04T11:50:57.490Z,10.05
2023-02-04T11:52:17.836Z,7.40
2023-02-04T11:53:38.506Z,7.93
2023-02-04T11:55:00.494Z,6.55
2023-02-04T11:57:43.055Z,6.00
2023-02-04T11:59:03.651Z,6.05
2023-02-04T12:00:27.137Z,7.13
2023-02-04T12:01:47.376Z,5.35
2023-02-04T12:03:22.655Z,5.72
2023-02-04T12:04:52.058Z,6.88
2023-02-04T12:06:21.008Z,5.78
2023-02-04T12:07:42.521Z,6.88
2023-02-04T12:09:06.335Z,6.07
2023-02-04T12:10:27.303Z,6.38
2023-02-04T12:12:08.829Z,5.55
2023-02-04T12:13:30.903Z,6.30
2023-02-04T12:14:58.306Z,7.05
2023-02-04T12:16:20.505Z,6.20
2023-02-04T12:17:40.918Z,7.22
2023-02-04T12:19:01.330Z,7.65
2023-02-04T12:20:22.218Z,8.27
2023-02-04T12:21:42.882Z,5.97
2023-02-04T12:23:03.302Z,6.68
2023-02-04T12:24:24.320Z,6.47
2023-02-04T12:25:44.875Z,7.10
2023-02-04T12:27:05.428Z,7.37
2023-02-04T12:28:26.652Z,6.47
2023-02-04T12:29:47.429Z,7.47
2023-02-04T12:31:08.325Z,6.57
2023-02-04T12:32:30.085Z,6.87
2023-02-04T12:33:50.977Z,8.18
2023-02-04T12:35:11.990Z,8.02
2023-02-04T12:36:32.581Z,6.65
2023-02-04T12:37:53.309Z,6.50
2023-02-04T12:39:13.733Z,6.47
2023-02-04T12:40:34.592Z,6.78
2023-02-04T12:41:55.568Z,6.22
2023-02-04T12:43:16.515Z,7.18
2023-02-04T12:44:37.166Z,8.27
2023-02-04T12:45:57.830Z,7.20
2023-02-04T12:47:18.645Z,7.07
2023-02-04T12:48:40.858Z,7.68
2023-02-04T12:50:01.352Z,6.82
2023-02-04T12:51:22.261Z,6.68
2023-02-04T12:52:42.666Z,8.13
2023-02-04T12:54:03.136Z,7.85
2023-02-04T12:55:24.935Z,7.40
2023-02-04T12:56:45.352Z,6.82
2023-02-04T12:58:06.078Z,7.15
2023-02-04T12:59:26.662Z,6.18
2023-02-04T13:00:47.070Z,6.10
2023-02-04T13:02:07.402Z,5.50
2023-02-04T13:03:27.850Z,7.35
2023-02-04T13:04:50.112Z,7.72
2023-02-04T13:06:10.621Z,6.53
2023-02-04T13:07:31.342Z,7.65
2023-02-04T13:08:52.140Z,7.67
2023-02-04T13:10:13.564Z,7.68
2023-02-04T13:11:34.247Z,7.68
2023-02-04T13:12:54.809Z,6.40
2023-02-04T13:14:15.640Z,8.52
2023-02-04T13:15:36.515Z,7.25
2023-02-04T13:16:57.001Z,8.68
2023-02-04T13:18:17.799Z,7.53
2023-02-04T13:19:38.377Z,9.43
2023-02-04T13:21:00.517Z,9.30
2023-02-04T13:22:21.174Z,8.70
2023-02-04T13:23:42.119Z,9.70
2023-02-04T13:25:04.115Z,9.37
2023-02-04T13:26:25.577Z,8.80
2023-02-04T13:27:46.087Z,9.55
2023-02-04T13:29:06.777Z,9.67
2023-02-04T13:30:27.669Z,10.88
2023-02-04T13:31:48.366Z,9.85
2023-02-04T13:33:09.073Z,11.88
2023-02-04T13:34:29.962Z,10.65
2023-02-04T13:35:50.892Z,11.00
2023-02-04T13:37:12.868Z,12.43
2023-02-04T13:38:33.443Z,13.02
2023-02-04T13:39:54.218Z,13.65
2023-02-04T13:41:14.912Z,12.93
2023-02-04T13:42:35.851Z,12.27
2023-02-04T13:43:57.073Z,14.30
2023-02-04T13:45:18.161Z,11.32
2023-02-04T13:46:38.939Z,13.13
2023-02-04T13:47:59.683Z,12.38
2023-02-04T13:49:20.370Z,13.82
2023-02-04T13:50:41.240Z,14.35
2023-02-04T13:52:02.340Z,14.60
2023-02-04T13:53:24.285Z,14.63
2023-02-04T13:54:44.924Z,16.35
2023-02-04T13:56:05.984Z,17.08
2023-02-04T13:57:26.690Z,14.82
2023-02-04T13:58:47.615Z,16.08
2023-02-04T14:00:09.668Z,15.20
2023-02-04T14:02:50.376Z,12.20
2023-02-04T14:04:11.017Z,13.80
2023-02-04T14:05:31.729Z,14.02
2023-02-04T14:06:52.627Z,14.40
2023-02-04T14:08:13.400Z,11.68
2023-02-04T14:09:35.164Z,10.43
2023-02-04T14:10:56.199Z,8.75
2023-02-04T14:12:16.904Z,10.25
2023-02-04T14:13:37.608Z,12.13
2023-02-04T14:14:58.304Z,13.03
2023-02-04T14:16:19.026Z,11.70
2023-02-04T14:17:39.535Z,9.20
2023-02-04T14:19:00.299Z,8.88
2023-02-04T14:20:21.015Z,9.55
2023-02-04T14:21:41.716Z,9.88
2023-02-04T14:23:02.496Z,10.07
2023-02-04T14:24:23.117Z,10.52
2023-02-04T14:25:45.229Z,8.53
2023-02-04T14:27:05.928Z,11.10
2023-02-04T14:28:26.721Z,9.45
2023-02-04T14:29:48.564Z,10.10
2023-02-04T14:31:10.333Z,8.40
2023-02-04T14:32:31.308Z,9.10
2023-02-04T14:33:52.196Z,8.50
2023-02-04T14:35:13.029Z,8.75
2023-02-04T14:36:33.864Z,8.75
2023-02-04T14:37:41.236Z,8.63
2023-02-04T14:39:01.755Z,9.20
2023-02-04T14:40:22.427Z,9.77
2023-02-04T14:41:45.290Z,9.27
2023-02-04T14:43:07.405Z,9.10
2023-02-04T14:44:33.823Z,8.43
2023-02-04T14:45:55.724Z,7.25
2023-02-04T14:47:17.046Z,8.23
2023-02-04T14:48:37.500Z,9.52
2023-02-04T14:49:57.883Z,10.00
2023-02-04T14:51:19.673Z,10.25
2023-02-04T14:52:41.793Z,9.68
2023-02-04T14:54:03.469Z,9.20
2023-02-04T14:55:25.778Z,10.07
2023-02-04T14:56:49.462Z,10.55
2023-02-04T14:58:11.973Z,13.50
2023-02-04T14:59:38.913Z,10.48
2023-02-04T15:01:01.494Z,11.45
2023-02-04T15:02:23.255Z,11.93
2023-02-04T15:03:45.148Z,12.77
2023-02-04T15:05:06.855Z,12.15
2023-02-04T15:06:31.470Z,14.55
2023-02-04T15:07:54.209Z,12.75
2023-02-04T15:09:18.191Z,14.52
2023-02-04T15:10:39.002Z,15.25
2023-02-04T15:12:01.311Z,15.52
2023-02-04T15:13:22.693Z,15.23
2023-02-04T15:14:49.999Z,12.85
2023-02-04T15:16:16.127Z,14.25
2023-02-04T15:17:43.021Z,12.93
2023-02-04T15:19:06.829Z,13.82
2023-02-04T15:20:38.365Z,14.52
2023-02-04T15:21:59.592Z,14.32
2023-02-04T15:23:20.162Z,14.00
2023-02-04T15:24:41.193Z,13.40
2023-02-04T15:26:02.118Z,13.52
2023-02-04T15:27:23.984Z,14.17
2023-02-04T15:28:44.730Z,15.05
2023-02-04T15:30:05.675Z,14.30
2023-02-04T15:31:26.290Z,13.85
2023-02-04T15:32:47.307Z,13.93
2023-02-04T15:34:07.954Z,14.95
2023-02-04T15:35:28.755Z,13.20
2023-02-04T15:36:49.292Z,13.48
2023-02-04T15:38:10.272Z,14.80
2023-02-04T15:39:31.240Z,14.85
2023-02-04T15:40:52.039Z,13.00
2023-02-04T15:42:12.865Z,13.17
2023-02-04T15:43:35.769Z,13.88
2023-02-04T15:44:56.542Z,14.93
2023-02-04T15:46:17.103Z,13.18
2023-02-04T15:47:38.201Z,13.25
2023-02-04T15:48:58.945Z,14.38
2023-02-04T15:50:19.730Z,14.50
2023-02-04T15:51:40.320Z,14.50
2023-02-04T15:53:01.177Z,15.80
2023-02-04T15:54:21.775Z,15.25
2023-02-04T15:55:42.549Z,16.23
2023-02-04T15:57:03.281Z,15.18
2023-02-04T15:58:23.939Z,13.38
2023-02-04T15:59:45.955Z,14.13
2023-02-04T16:01:06.551Z,15.88
2023-02-04T16:02:27.006Z,15.13
2023-02-04T16:03:47.769Z,15.63
2023-02-04T16:05:08.419Z,15.77
2023-02-04T16:06:29.187Z,16.45
2023-02-04T16:07:49.943Z,18.33
2023-02-04T16:09:10.690Z,15.98
2023-02-04T16:10:31.678Z,14.93
2023-02-04T16:11:52.061Z,15.77
2023-02-04T16:13:12.752Z,15.90
2023-02-04T16:14:33.902Z,14.93
2023-02-04T16:15:56.005Z,15.85
2023-02-04T16:17:18.276Z,16.42
2023-02-04T16:18:39.682Z,17.27
2023-02-04T16:20:00.271Z,18.65
2023-02-04T16:21:20.970Z,17.52
2023-02-04T16:22:41.780Z,17.58
2023-02-04T16:24:02.488Z,17.60
2023-02-04T16:25:23.214Z,18.38
2023-02-04T16:26:43.709Z,16.88
2023-02-04T16:28:05.530Z,16.60
2023-02-04T16:29:26.190Z,17.02
2023-02-04T16:30:47.356Z,15.77
2023-02-04T16:32:09.465Z,17.65
2023-02-04T16:33:30.328Z,16.15
2023-02-04T16:34:51.015Z,15.20
2023-02-04T16:36:11.741Z,15.20
2023-02-04T16:37:32.579Z,17.88
2023-02-04T16:38:53.362Z,14.98
2023-02-04T16:40:14.284Z,15.65
2023-02-04T16:41:35.061Z,15.68
2023-02-04T16:42:55.410Z,16.45
2023-02-04T16:44:16.124Z,17.58
2023-02-04T16:45:36.522Z,17.13
2023-02-04T16:46:57.393Z,17.70
2023-02-04T16:48:19.346Z,18.05
2023-02-04T16:49:40.252Z,21.65
2023-02-04T16:51:00.982Z,20.70
2023-02-04T16:55:06.778Z,20.67
2023-02-04T16:56:27.418Z,20.90
2023-02-04T16:57:48.105Z,21.80
2023-02-04T16:59:08.417Z,22.42
2023-02-04T17:00:29.438Z,20.57
2023-02-04T17:01:50.539Z,24.23
2023-02-04T17:03:12.738Z,24.58
2023-02-04T17:05:54.836Z,23.65
2023-02-04T17:07:15.447Z,22.77
2023-02-04T17:08:36.093Z,24.15
2023-02-04T17:09:57.000Z,22.45
2023-02-04T17:11:17.431Z,24.20
2023-02-04T17:12:38.327Z,23.90
2023-02-04T17:14:00.243Z,24.77
2023-02-04T17:16:40.913Z,23.42
2023-02-04T17:18:01.807Z,22.17
2023-02-04T17:19:22.514Z,21.95
2023-02-04T17:20:44.639Z,22.95
2023-02-04T17:22:05.317Z,20.80
2023-02-04T17:23:26.682Z,21.02
2023-02-04T17:24:47.464Z,19.45
2023-02-04T17:26:08.162Z,21.65
2023-02-04T17:27:28.904Z,23.83
2023-02-04T17:28:49.554Z,22.08
2023-02-04T17:30:11.489Z,22.08
2023-02-04T17:31:32.215Z,21.75
2023-02-04T17:32:53.018Z,22.05
2023-02-04T17:34:13.806Z,21.67
2023-02-04T17:35:34.597Z,22.33
2023-02-04T17:36:57.045Z,20.48
2023-02-04T17:38:17.912Z,21.00
2023-02-04T17:39:38.739Z,20.20
2023-02-04T17:41:00.099Z,20.67
2023-02-04T17:42:20.764Z,20.73
2023-02-04T17:43:41.310Z,21.03
2023-02-04T17:45:02.023Z,22.05
2023-02-04T17:46:23.005Z,21.08
2023-02-04T17:47:43.863Z,20.67
2023-02-04T17:49:04.767Z,18.95
2023-02-04T17:50:25.401Z,20.23
2023-02-04T17:51:46.173Z,19.42
2023-02-04T17:53:09.256Z,18.90
2023-02-04T17:54:29.992Z,19.75
2023-02-04T17:55:52.845Z,18.92
2023-02-04T17:57:17.193Z,20.70
2023-02-04T17:58:37.720Z,18.10
2023-02-04T17:59:58.473Z,18.80
2023-02-04T18:01:19.774Z,20.20
2023-02-04T18:02:40.851Z,20.10
2023-02-04T18:04:01.687Z,22.00
2023-02-04T18:05:23.585Z,19.98
2023-02-04T18:06:51.349Z,22.02
2023-02-04T18:08:15.823Z,21.75
2023-02-04T18:09:36.612Z,21.40